sensor_id;sensor_type;location;lat;lon;timestamp;pressure;altitude;pressure_sealevel;temperature
11926;BMP180;6022;48.768;18.608;2023-05-10T00:01:25;98575.69;;;9.43
11926;BMP180;6022;48.768;18.608;2023-05-10T00:03:55;98551.25;;;9.42
11926;BMP180;6022;48.768;18.608;2023-05-10T00:06:25;98552.63;;;9.48
11926;BMP180;6022;48.768;18.608;2023-05-10T00:08:54;98560.78;;;9.53
11926;BMP180;6022;48.768;18.608;2023-05-10T00:11:25;98570.69;;;9.42
11926;BMP180;6022;48.768;18.608;2023-05-10T00:13:57;98558.41;;;9.36
11926;BMP180;6022;48.768;18.608;2023-05-10T00:16:25;98539.81;;;9.22
11926;BMP180;6022;48.768;18.608;2023-05-10T00:18:55;98552.72;;;9.17
11926;BMP180;6022;48.768;18.608;2023-05-10T00:21:22;98548.47;;;9.18
11926;BMP180;6022;48.768;18.608;2023-05-10T00:23:52;98547.06;;;9.28
11926;BMP180;6022;48.768;18.608;2023-05-10T00:26:19;98548.47;;;9.18
11926;BMP180;6022;48.768;18.608;2023-05-10T00:28:48;98540.44;;;8.96
11926;BMP180;6022;48.768;18.608;2023-05-10T00:31:18;98543.56;;;8.86
11926;BMP180;6022;48.768;18.608;2023-05-10T00:33:46;98544.09;;;8.91
11926;BMP180;6022;48.768;18.608;2023-05-10T00:36:15;98540.13;;;8.87
11926;BMP180;6022;48.768;18.608;2023-05-10T00:38:45;98534.56;;;8.96
11926;BMP180;6022;48.768;18.608;2023-05-10T00:41:14;98536.63;;;8.89
11926;BMP180;6022;48.768;18.608;2023-05-10T00:43:43;98524.22;;;8.85
11926;BMP180;6022;48.768;18.608;2023-05-10T00:46:11;98527.81;;;8.81
11926;BMP180;6022;48.768;18.608;2023-05-10T00:48:41;98531.00;;;8.84
11926;BMP180;6022;48.768;18.608;2023-05-10T00:51:12;98525.47;;;8.78
11926;BMP180;6022;48.768;18.608;2023-05-10T00:53:40;98516.72;;;8.68
11926;BMP180;6022;48.768;18.608;2023-05-10T00:56:09;98521.78;;;8.68
11926;BMP180;6022;48.768;18.608;2023-05-10T00:58:39;98534.50;;;8.82
11926;BMP180;6022;48.768;18.608;2023-05-10T01:01:09;98524.13;;;8.86
11926;BMP180;6022;48.768;18.608;2023-05-10T01:03:39;98527.13;;;8.93
11926;BMP180;6022;48.768;18.608;2023-05-10T01:06:08;98523.63;;;8.95
11926;BMP180;6022;48.768;18.608;2023-05-10T01:08:38;98519.88;;;8.87
11926;BMP180;6022;48.768;18.608;2023-05-10T01:11:09;98519.72;;;8.90
11926;BMP180;6022;48.768;18.608;2023-05-10T01:13:40;98525.84;;;8.86
11926;BMP180;6022;48.768;18.608;2023-05-10T01:16:10;98515.03;;;8.68
11926;BMP180;6022;48.768;18.608;2023-05-10T01:18:41;98511.84;;;8.65
11926;BMP180;6022;48.768;18.608;2023-05-10T01:21:43;98506.72;;;8.67
11926;BMP180;6022;48.768;18.608;2023-05-10T01:27:06;98493.50;;;8.62
11926;BMP180;6022;48.768;18.608;2023-05-10T01:38:47;98512.81;;;8.47
11926;BMP180;6022;48.768;18.608;2023-05-10T01:47:15;98510.47;;;8.44
11926;BMP180;6022;48.768;18.608;2023-05-10T01:49:52;98503.53;;;8.32
11926;BMP180;6022;48.768;18.608;2023-05-10T01:52:32;98498.41;;;8.34
11926;BMP180;6022;48.768;18.608;2023-05-10T01:55:10;98499.44;;;8.45
11926;BMP180;6022;48.768;18.608;2023-05-10T01:57:40;98516.94;;;8.50
11926;BMP180;6022;48.768;18.608;2023-05-10T02:00:14;98495.38;;;8.58
11926;BMP180;6022;48.768;18.608;2023-05-10T02:02:49;98498.97;;;8.39
11926;BMP180;6022;48.768;18.608;2023-05-10T02:05:20;98498.97;;;8.39
11926;BMP180;6022;48.768;18.608;2023-05-10T02:07:54;98488.63;;;8.43
11926;BMP180;6022;48.768;18.608;2023-05-10T02:10:24;98487.22;;;8.53
11926;BMP180;6022;48.768;18.608;2023-05-10T02:12:55;98495.09;;;8.01
11926;BMP180;6022;48.768;18.608;2023-05-10T02:15:27;98490.78;;;8.03
11926;BMP180;6022;48.768;18.608;2023-05-10T02:17:58;98490.97;;;8.16
11926;BMP180;6022;48.768;18.608;2023-05-10T02:20:28;98500.13;;;8.18
11926;BMP180;6022;48.768;18.608;2023-05-10T02:22:58;98487.31;;;8.21
11926;BMP180;6022;48.768;18.608;2023-05-10T02:25:28;98474.19;;;8.30
11926;BMP180;6022;48.768;18.608;2023-05-10T02:28:03;98480.06;;;8.30
11926;BMP180;6022;48.768;18.608;2023-05-10T02:30:35;98490.50;;;8.25
11926;BMP180;6022;48.768;18.608;2023-05-10T02:33:05;98468.97;;;8.33
11926;BMP180;6022;48.768;18.608;2023-05-10T02:35:35;98471.72;;;8.44
11926;BMP180;6022;48.768;18.608;2023-05-10T02:38:07;98462.84;;;8.52
11926;BMP180;6022;48.768;18.608;2023-05-10T02:40:37;98479.63;;;8.53
11926;BMP180;6022;48.768;18.608;2023-05-10T02:43:09;98484.13;;;8.48
11926;BMP180;6022;48.768;18.608;2023-05-10T02:45:42;98484.47;;;8.42
11926;BMP180;6022;48.768;18.608;2023-05-10T02:48:12;98492.13;;;8.41
11926;BMP180;6022;48.768;18.608;2023-05-10T02:50:44;98486.56;;;8.34
11926;BMP180;6022;48.768;18.608;2023-05-10T02:53:22;98484.28;;;8.30
11926;BMP180;6022;48.768;18.608;2023-05-10T02:55:54;98499.22;;;8.19
11926;BMP180;6022;48.768;18.608;2023-05-10T02:58:25;98495.22;;;8.15
11926;BMP180;6022;48.768;18.608;2023-05-10T03:00:54;98492.53;;;8.18
11926;BMP180;6022;48.768;18.608;2023-05-10T03:03:23;98482.91;;;8.09
11926;BMP180;6022;48.768;18.608;2023-05-10T03:05:55;98492.03;;;8.12
11926;BMP180;6022;48.768;18.608;2023-05-10T03:08:25;98487.53;;;8.01
11926;BMP180;6022;48.768;18.608;2023-05-10T03:11:49;98473.09;;;8.03
11926;BMP180;6022;48.768;18.608;2023-05-10T03:14:56;98483.97;;;8.21
11926;BMP180;6022;48.768;18.608;2023-05-10T03:17:50;98480.31;;;8.26
11926;BMP180;6022;48.768;18.608;2023-05-10T03:20:29;98479.53;;;8.09
11926;BMP180;6022;48.768;18.608;2023-05-10T03:26:09;98496.94;;;8.15
11926;BMP180;6022;48.768;18.608;2023-05-10T03:28:43;98496.19;;;8.13
11926;BMP180;6022;48.768;18.608;2023-05-10T03:31:13;98508.09;;;8.26
11926;BMP180;6022;48.768;18.608;2023-05-10T03:33:49;98499.94;;;8.36
11926;BMP180;6022;48.768;18.608;2023-05-10T03:36:20;98491.47;;;8.53
11926;BMP180;6022;48.768;18.608;2023-05-10T03:38:48;98482.47;;;8.63
11926;BMP180;6022;48.768;18.608;2023-05-10T03:41:18;98489.75;;;8.53
11926;BMP180;6022;48.768;18.608;2023-05-10T03:43:46;98496.84;;;8.62
11926;BMP180;6022;48.768;18.608;2023-05-10T03:46:14;98492.16;;;8.70
11926;BMP180;6022;48.768;18.608;2023-05-10T03:48:44;98483.59;;;8.88
11926;BMP180;6022;48.768;18.608;2023-05-10T03:51:13;98482.00;;;9.01
11926;BMP180;6022;48.768;18.608;2023-05-10T03:53:45;98500.47;;;9.16
11926;BMP180;6022;48.768;18.608;2023-05-10T03:56:14;98498.88;;;9.43
11926;BMP180;6022;48.768;18.608;2023-05-10T03:58:43;98491.63;;;9.66
11926;BMP180;6022;48.768;18.608;2023-05-10T04:01:11;98480.84;;;9.90
11926;BMP180;6022;48.768;18.608;2023-05-10T04:03:41;98490.00;;;9.79
11926;BMP180;6022;48.768;18.608;2023-05-10T04:06:09;98475.03;;;9.75
11926;BMP180;6022;48.768;18.608;2023-05-10T04:08:39;98478.50;;;10.15
11926;BMP180;6022;48.768;18.608;2023-05-10T04:11:09;98476.25;;;10.37
11926;BMP180;6022;48.768;18.608;2023-05-10T04:13:38;98486.78;;;10.31
11926;BMP180;6022;48.768;18.608;2023-05-10T04:16:07;98487.38;;;10.22
11926;BMP180;6022;48.768;18.608;2023-05-10T04:18:37;98490.41;;;10.27
11926;BMP180;6022;48.768;18.608;2023-05-10T04:21:12;98500.56;;;10.27
11926;BMP180;6022;48.768;18.608;2023-05-10T04:23:41;98499.19;;;10.21
11926;BMP180;6022;48.768;18.608;2023-05-10T04:26:13;98495.19;;;10.45
11926;BMP180;6022;48.768;18.608;2023-05-10T04:28:43;98493.91;;;10.78
11926;BMP180;6022;48.768;18.608;2023-05-10T04:31:14;98487.78;;;11.07
11926;BMP180;6022;48.768;18.608;2023-05-10T04:33:43;98494.91;;;11.27
11926;BMP180;6022;48.768;18.608;2023-05-10T04:36:11;98488.75;;;11.43
11926;BMP180;6022;48.768;18.608;2023-05-10T04:38:40;98487.78;;;11.58
11926;BMP180;6022;48.768;18.608;2023-05-10T04:41:10;98489.19;;;11.86
11926;BMP180;6022;48.768;18.608;2023-05-10T04:43:41;98486.28;;;12.86
11926;BMP180;6022;48.768;18.608;2023-05-10T04:46:08;98497.81;;;13.37
11926;BMP180;6022;48.768;18.608;2023-05-10T04:48:38;98489.06;;;13.84
11926;BMP180;6022;48.768;18.608;2023-05-10T04:51:09;98481.69;;;14.14
11926;BMP180;6022;48.768;18.608;2023-05-10T04:53:39;98479.03;;;14.68
11926;BMP180;6022;48.768;18.608;2023-05-10T04:56:09;98479.56;;;15.13
11926;BMP180;6022;48.768;18.608;2023-05-10T04:58:37;98471.53;;;15.38
11926;BMP180;6022;48.768;18.608;2023-05-10T05:01:09;98484.19;;;16.10
11926;BMP180;6022;48.768;18.608;2023-05-10T05:03:38;98483.78;;;16.14
11926;BMP180;6022;48.768;18.608;2023-05-10T05:06:11;98472.91;;;17.07
11926;BMP180;6022;48.768;18.608;2023-05-10T05:08:39;98472.66;;;17.20
11926;BMP180;6022;48.768;18.608;2023-05-10T05:11:08;98475.53;;;18.08
11926;BMP180;6022;48.768;18.608;2023-05-10T05:13:37;98473.09;;;19.21
11926;BMP180;6022;48.768;18.608;2023-05-10T05:16:07;98467.22;;;20.04
11926;BMP180;6022;48.768;18.608;2023-05-10T05:18:39;98477.31;;;20.71
11926;BMP180;6022;48.768;18.608;2023-05-10T05:21:16;98477.38;;;21.50
11926;BMP180;6022;48.768;18.608;2023-05-10T05:23:45;98481.50;;;21.91
11926;BMP180;6022;48.768;18.608;2023-05-10T05:26:14;98469.66;;;21.42
11926;BMP180;6022;48.768;18.608;2023-05-10T05:28:47;98471.91;;;21.45
11926;BMP180;6022;48.768;18.608;2023-05-10T05:31:16;98474.34;;;20.58
11926;BMP180;6022;48.768;18.608;2023-05-10T05:33:45;98464.63;;;21.01
11926;BMP180;6022;48.768;18.608;2023-05-10T05:36:14;98471.72;;;21.23
11926;BMP180;6022;48.768;18.608;2023-05-10T05:38:44;98484.19;;;21.43
11926;BMP180;6022;48.768;18.608;2023-05-10T05:41:13;98475.59;;;22.28
11926;BMP180;6022;48.768;18.608;2023-05-10T05:43:41;98477.22;;;22.21
11926;BMP180;6022;48.768;18.608;2023-05-10T05:46:10;98472.38;;;22.10
11926;BMP180;6022;48.768;18.608;2023-05-10T05:48:42;98479.31;;;21.48
11926;BMP180;6022;48.768;18.608;2023-05-10T05:51:11;98481.69;;;21.81
11926;BMP180;6022;48.768;18.608;2023-05-10T05:53:40;98476.94;;;22.16
11926;BMP180;6022;48.768;18.608;2023-05-10T05:56:08;98483.84;;;23.58
11926;BMP180;6022;48.768;18.608;2023-05-10T05:58:39;98491.44;;;24.60
11926;BMP180;6022;48.768;18.608;2023-05-10T06:01:06;98492.13;;;24.68
11926;BMP180;6022;48.768;18.608;2023-05-10T06:03:36;98481.72;;;24.83
11926;BMP180;6022;48.768;18.608;2023-05-10T06:06:05;98485.03;;;25.33
11926;BMP180;6022;48.768;18.608;2023-05-10T06:08:35;98487.13;;;25.64
11926;BMP180;6022;48.768;18.608;2023-05-10T06:11:04;98489.66;;;25.58
11926;BMP180;6022;48.768;18.608;2023-05-10T06:13:35;98476.06;;;25.35
11926;BMP180;6022;48.768;18.608;2023-05-10T06:16:07;98490.00;;;23.57
11926;BMP180;6022;48.768;18.608;2023-05-10T06:18:36;98477.53;;;22.86
11926;BMP180;6022;48.768;18.608;2023-05-10T06:21:08;98480.75;;;24.34
11926;BMP180;6022;48.768;18.608;2023-05-10T06:23:38;98484.81;;;25.55
11926;BMP180;6022;48.768;18.608;2023-05-10T06:26:13;98482.50;;;26.21
11926;BMP180;6022;48.768;18.608;2023-05-10T06:28:41;98486.47;;;26.57
11926;BMP180;6022;48.768;18.608;2023-05-10T06:31:09;98480.09;;;26.72
11926;BMP180;6022;48.768;18.608;2023-05-10T06:33:42;98483.53;;;26.79
11926;BMP180;6022;48.768;18.608;2023-05-10T06:36:11;98496.06;;;27.09
11926;BMP180;6022;48.768;18.608;2023-05-10T06:38:41;98487.00;;;25.79
11926;BMP180;6022;48.768;18.608;2023-05-10T06:41:10;98487.19;;;26.84
11926;BMP180;6022;48.768;18.608;2023-05-10T06:43:39;98496.38;;;26.80
11926;BMP180;6022;48.768;18.608;2023-05-10T06:46:12;98493.00;;;26.40
11926;BMP180;6022;48.768;18.608;2023-05-10T06:48:45;98497.81;;;25.76
11926;BMP180;6022;48.768;18.608;2023-05-10T06:51:13;98482.59;;;25.79
11926;BMP180;6022;48.768;18.608;2023-05-10T06:53:41;98483.22;;;25.33
11926;BMP180;6022;48.768;18.608;2023-05-10T06:56:09;98486.03;;;24.41
11926;BMP180;6022;48.768;18.608;2023-05-10T06:58:38;98483.88;;;25.89
11926;BMP180;6022;48.768;18.608;2023-05-10T07:01:06;98492.19;;;26.39
11926;BMP180;6022;48.768;18.608;2023-05-10T07:03:36;98491.00;;;26.08
11926;BMP180;6022;48.768;18.608;2023-05-10T07:06:06;98476.78;;;26.38
11926;BMP180;6022;48.768;18.608;2023-05-10T07:08:44;98479.91;;;25.93
11926;BMP180;6022;48.768;18.608;2023-05-10T07:11:12;98479.66;;;24.43
11926;BMP180;6022;48.768;18.608;2023-05-10T07:13:40;98485.69;;;25.41
11926;BMP180;6022;48.768;18.608;2023-05-10T07:16:12;98484.72;;;26.76
11926;BMP180;6022;48.768;18.608;2023-05-10T07:18:40;98488.88;;;27.62
11926;BMP180;6022;48.768;18.608;2023-05-10T07:21:09;98497.25;;;26.54
11926;BMP180;6022;48.768;18.608;2023-05-10T07:23:37;98497.22;;;24.27
11926;BMP180;6022;48.768;18.608;2023-05-10T07:26:10;98502.19;;;23.49
11926;BMP180;6022;48.768;18.608;2023-05-10T07:28:37;98500.94;;;22.63
11926;BMP180;6022;48.768;18.608;2023-05-10T07:31:05;98503.72;;;22.23
11926;BMP180;6022;48.768;18.608;2023-05-10T07:33:33;98508.06;;;22.31
11926;BMP180;6022;48.768;18.608;2023-05-10T07:36:02;98512.69;;;19.87
11926;BMP180;6022;48.768;18.608;2023-05-10T07:38:30;98509.63;;;19.67
11926;BMP180;6022;48.768;18.608;2023-05-10T07:40:58;98499.44;;;20.97
11926;BMP180;6022;48.768;18.608;2023-05-10T07:43:25;98495.84;;;19.33
11926;BMP180;6022;48.768;18.608;2023-05-10T07:45:54;98505.22;;;20.35
11926;BMP180;6022;48.768;18.608;2023-05-10T07:48:23;98497.19;;;22.43
11926;BMP180;6022;48.768;18.608;2023-05-10T07:50:53;98499.84;;;23.76
11926;BMP180;6022;48.768;18.608;2023-05-10T07:53:22;98505.50;;;25.01
11926;BMP180;6022;48.768;18.608;2023-05-10T07:55:54;98498.97;;;26.34
11926;BMP180;6022;48.768;18.608;2023-05-10T07:58:22;98497.97;;;23.48
11926;BMP180;6022;48.768;18.608;2023-05-10T08:00:50;98501.56;;;22.73
11926;BMP180;6022;48.768;18.608;2023-05-10T08:03:18;98500.66;;;23.54
11926;BMP180;6022;48.768;18.608;2023-05-10T08:05:49;98497.06;;;22.29
11926;BMP180;6022;48.768;18.608;2023-05-10T08:08:16;98509.59;;;20.91
11926;BMP180;6022;48.768;18.608;2023-05-10T08:10:49;98512.38;;;21.37
11926;BMP180;6022;48.768;18.608;2023-05-10T08:13:18;98505.78;;;21.42
11926;BMP180;6022;48.768;18.608;2023-05-10T08:15:47;98513.06;;;21.55
11926;BMP180;6022;48.768;18.608;2023-05-10T08:18:19;98505.81;;;22.12
11926;BMP180;6022;48.768;18.608;2023-05-10T08:20:48;98502.25;;;22.29
11926;BMP180;6022;48.768;18.608;2023-05-10T08:23:17;98510.22;;;23.54
11926;BMP180;6022;48.768;18.608;2023-05-10T08:25:45;98510.63;;;21.61
11926;BMP180;6022;48.768;18.608;2023-05-10T08:28:13;98510.38;;;23.75
11926;BMP180;6022;48.768;18.608;2023-05-10T08:30:42;98496.47;;;22.57
11926;BMP180;6022;48.768;18.608;2023-05-10T08:33:10;98507.31;;;22.82
11926;BMP180;6022;48.768;18.608;2023-05-10T08:35:42;98500.59;;;24.56
11926;BMP180;6022;48.768;18.608;2023-05-10T08:38:10;98507.66;;;24.48
11926;BMP180;6022;48.768;18.608;2023-05-10T08:40:42;98512.75;;;24.41
11926;BMP180;6022;48.768;18.608;2023-05-10T08:43:12;98504.38;;;25.09
11926;BMP180;6022;48.768;18.608;2023-05-10T08:45:45;98504.69;;;24.65
11926;BMP180;6022;48.768;18.608;2023-05-10T08:48:15;98500.66;;;25.39
11926;BMP180;6022;48.768;18.608;2023-05-10T08:50:46;98510.88;;;25.61
11926;BMP180;6022;48.768;18.608;2023-05-10T08:53:16;98507.09;;;25.22
11926;BMP180;6022;48.768;18.608;2023-05-10T08:55:45;98504.63;;;24.94
11926;BMP180;6022;48.768;18.608;2023-05-10T08:58:14;98498.78;;;25.54
11926;BMP180;6022;48.768;18.608;2023-05-10T09:00:42;98507.72;;;25.04
11926;BMP180;6022;48.768;18.608;2023-05-10T09:03:11;98502.78;;;24.73
11926;BMP180;6022;48.768;18.608;2023-05-10T09:05:40;98505.50;;;25.01
11926;BMP180;6022;48.768;18.608;2023-05-10T09:08:08;98492.91;;;24.83
11926;BMP180;6022;48.768;18.608;2023-05-10T09:10:38;98498.22;;;23.61
11926;BMP180;6022;48.768;18.608;2023-05-10T09:13:09;98497.41;;;22.64
11926;BMP180;6022;48.768;18.608;2023-05-10T09:15:38;98504.06;;;22.20
11926;BMP180;6022;48.768;18.608;2023-05-10T09:18:05;98494.28;;;22.76
11926;BMP180;6022;48.768;18.608;2023-05-10T09:20:33;98497.44;;;23.52
11926;BMP180;6022;48.768;18.608;2023-05-10T09:23:01;98502.28;;;23.92
11926;BMP180;6022;48.768;18.608;2023-05-10T09:25:29;98508.91;;;24.23
11926;BMP180;6022;48.768;18.608;2023-05-10T09:28:01;98495.00;;;22.08
11926;BMP180;6022;48.768;18.608;2023-05-10T09:30:30;98501.25;;;21.68
11926;BMP180;6022;48.768;18.608;2023-05-10T09:32:59;98498.19;;;20.60
11926;BMP180;6022;48.768;18.608;2023-05-10T09:35:31;98492.53;;;21.77
11926;BMP180;6022;48.768;18.608;2023-05-10T09:38:03;98480.91;;;23.17
11926;BMP180;6022;48.768;18.608;2023-05-10T09:40:32;98487.03;;;21.72
11926;BMP180;6022;48.768;18.608;2023-05-10T09:43:11;98481.56;;;21.27
11926;BMP180;6022;48.768;18.608;2023-05-10T09:45:41;98486.38;;;21.15
11926;BMP180;6022;48.768;18.608;2023-05-10T09:48:09;98479.94;;;21.34
11926;BMP180;6022;48.768;18.608;2023-05-10T09:50:41;98491.25;;;21.57
11926;BMP180;6022;48.768;18.608;2023-05-10T09:53:09;98487.09;;;22.10
11926;BMP180;6022;48.768;18.608;2023-05-10T09:55:45;98481.50;;;23.27
11926;BMP180;6022;48.768;18.608;2023-05-10T09:58:14;98487.34;;;24.08
11926;BMP180;6022;48.768;18.608;2023-05-10T10:00:46;98477.94;;;25.00
11926;BMP180;6022;48.768;18.608;2023-05-10T10:03:20;98480.75;;;24.34
11926;BMP180;6022;48.768;18.608;2023-05-10T10:05:50;98480.63;;;24.42
11926;BMP180;6022;48.768;18.608;2023-05-10T10:08:19;98498.97;;;23.98
11926;BMP180;6022;48.768;18.608;2023-05-10T10:10:48;98484.88;;;22.75
11926;BMP180;6022;48.768;18.608;2023-05-10T10:13:20;98477.94;;;22.75
11926;BMP180;6022;48.768;18.608;2023-05-10T10:15:52;98472.69;;;23.50
11926;BMP180;6022;48.768;18.608;2023-05-10T10:18:23;98476.81;;;22.70
11926;BMP180;6022;48.768;18.608;2023-05-10T10:20:55;98467.34;;;22.63
11926;BMP180;6022;48.768;18.608;2023-05-10T10:23:24;98470.28;;;22.60
11926;BMP180;6022;48.768;18.608;2023-05-10T10:25:55;98476.72;;;21.64
11926;BMP180;6022;48.768;18.608;2023-05-10T10:31:41;98475.13;;;22.55
11926;BMP180;6022;48.768;18.608;2023-05-10T10:34:28;98469.78;;;21.64
11926;BMP180;6022;48.768;18.608;2023-05-10T10:37:04;98462.19;;;21.00
11926;BMP180;6022;48.768;18.608;2023-05-10T10:39:32;98459.78;;;20.42
11926;BMP180;6022;48.768;18.608;2023-05-10T10:42:05;98464.63;;;22.10
11926;BMP180;6022;48.768;18.608;2023-05-10T10:44:37;98462.22;;;23.29
11926;BMP180;6022;48.768;18.608;2023-05-10T10:49:44;98447.91;;;22.97
11926;BMP180;6022;48.768;18.608;2023-05-10T10:52:30;98451.25;;;22.75
11926;BMP180;6022;48.768;18.608;2023-05-10T10:55:14;98440.78;;;23.57
11926;BMP180;6022;48.768;18.608;2023-05-10T10:57:58;98444.47;;;21.60
11926;BMP180;6022;48.768;18.608;2023-05-10T11:00:36;98461.91;;;21.42
11926;BMP180;6022;48.768;18.608;2023-05-10T11:03:13;98450.28;;;22.54
11926;BMP180;6022;48.768;18.608;2023-05-10T11:05:48;98434.06;;;22.30
11926;BMP180;6022;48.768;18.608;2023-05-10T11:08:32;98435.38;;;20.61
11926;BMP180;6022;48.768;18.608;2023-05-10T11:11:06;98440.16;;;20.41
11926;BMP180;6022;48.768;18.608;2023-05-10T11:13:41;98437.31;;;20.59
11926;BMP180;6022;48.768;18.608;2023-05-10T11:16:19;98446.56;;;20.78
11926;BMP180;6022;48.768;18.608;2023-05-10T11:19:04;98434.03;;;21.99
11926;BMP180;6022;48.768;18.608;2023-05-10T11:24:20;98435.84;;;23.12
11926;BMP180;6022;48.768;18.608;2023-05-10T11:26:51;98425.63;;;21.90
11926;BMP180;6022;48.768;18.608;2023-05-10T11:29:21;98423.13;;;22.72
11926;BMP180;6022;48.768;18.608;2023-05-10T11:31:50;98429.84;;;22.59
11926;BMP180;6022;48.768;18.608;2023-05-10T11:34:30;98416.25;;;23.46
11926;BMP180;6022;48.768;18.608;2023-05-10T11:37:02;98412.19;;;23.65
11926;BMP180;6022;48.768;18.608;2023-05-10T11:39:31;98413.19;;;22.91
11926;BMP180;6022;48.768;18.608;2023-05-10T11:42:00;98414.03;;;22.32
11926;BMP180;6022;48.768;18.608;2023-05-10T11:44:33;98414.75;;;22.48
11926;BMP180;6022;48.768;18.608;2023-05-10T11:47:01;98402.44;;;22.20
11926;BMP180;6022;48.768;18.608;2023-05-10T11:49:31;98412.13;;;21.80
11926;BMP180;6022;48.768;18.608;2023-05-10T11:52:07;98407.16;;;22.16
11926;BMP180;6022;48.768;18.608;2023-05-10T11:54:35;98405.91;;;23.09
11926;BMP180;6022;48.768;18.608;2023-05-10T11:57:04;98409.25;;;23.68
11926;BMP180;6022;48.768;18.608;2023-05-10T11:59:32;98410.34;;;22.78
11926;BMP180;6022;48.768;18.608;2023-05-10T12:02:01;98393.53;;;20.91
11926;BMP180;6022;48.768;18.608;2023-05-10T12:04:33;98405.91;;;20.72
11926;BMP180;6022;48.768;18.608;2023-05-10T12:07:01;98407.06;;;21.01
11926;BMP180;6022;48.768;18.608;2023-05-10T12:09:31;98412.78;;;19.99
11926;BMP180;6022;48.768;18.608;2023-05-10T12:12:11;98410.41;;;20.05
11926;BMP180;6022;48.768;18.608;2023-05-10T12:14:50;98401.81;;;20.38
11926;BMP180;6022;48.768;18.608;2023-05-10T12:17:21;98421.34;;;19.99
11926;BMP180;6022;48.768;18.608;2023-05-10T12:19:54;98408.66;;;19.22
11926;BMP180;6022;48.768;18.608;2023-05-10T12:22:25;98410.59;;;19.78
11926;BMP180;6022;48.768;18.608;2023-05-10T12:24:53;98411.47;;;20.44
11926;BMP180;6022;48.768;18.608;2023-05-10T12:27:22;98407.31;;;20.58
11926;BMP180;6022;48.768;18.608;2023-05-10T12:30:08;98416.22;;;20.15
11926;BMP180;6022;48.768;18.608;2023-05-10T12:32:40;98406.31;;;19.87
11926;BMP180;6022;48.768;18.608;2023-05-10T12:35:08;98405.50;;;20.27
11926;BMP180;6022;48.768;18.608;2023-05-10T12:37:36;98410.81;;;19.09
11926;BMP180;6022;48.768;18.608;2023-05-10T12:40:07;98404.31;;;18.88
11926;BMP180;6022;48.768;18.608;2023-05-10T12:42:38;98399.19;;;18.36
11926;BMP180;6022;48.768;18.608;2023-05-10T12:45:10;98398.31;;;18.62
11926;BMP180;6022;48.768;18.608;2023-05-10T12:47:38;98406.03;;;18.80
11926;BMP180;6022;48.768;18.608;2023-05-10T12:50:10;98400.31;;;18.68
11926;BMP180;6022;48.768;18.608;2023-05-10T12:52:38;98410.13;;;18.38
11926;BMP180;6022;48.768;18.608;2023-05-10T12:55:07;98392.53;;;17.90
11926;BMP180;6022;48.768;18.608;2023-05-10T12:57:35;98410.00;;;17.77
11926;BMP180;6022;48.768;18.608;2023-05-10T13:00:03;98406.97;;;18.44
11926;BMP180;6022;48.768;18.608;2023-05-10T13:02:32;98405.66;;;18.40
11926;BMP180;6022;48.768;18.608;2023-05-10T13:05:01;98411.50;;;18.33
11926;BMP180;6022;48.768;18.608;2023-05-10T13:07:29;98409.25;;;18.82
11926;BMP180;6022;48.768;18.608;2023-05-10T13:09:57;98398.53;;;18.69
11926;BMP180;6022;48.768;18.608;2023-05-10T13:12:25;98406.59;;;18.39
11926;BMP180;6022;48.768;18.608;2023-05-10T13:14:54;98404.75;;;17.78
11926;BMP180;6022;48.768;18.608;2023-05-10T13:17:22;98403.28;;;18.29
11926;BMP180;6022;48.768;18.608;2023-05-10T13:20:07;98396.00;;;18.94
11926;BMP180;6022;48.768;18.608;2023-05-10T13:22:35;98404.91;;;18.99
11926;BMP180;6022;48.768;18.608;2023-05-10T13:25:11;98393.25;;;18.70
11926;BMP180;6022;48.768;18.608;2023-05-10T13:27:40;98388.09;;;18.88
11926;BMP180;6022;48.768;18.608;2023-05-10T13:30:10;98392.44;;;19.30
11926;BMP180;6022;48.768;18.608;2023-05-10T13:32:38;98394.22;;;19.54
11926;BMP180;6022;48.768;18.608;2023-05-10T13:35:09;98380.09;;;19.33
11926;BMP180;6022;48.768;18.608;2023-05-10T13:37:36;98388.09;;;19.55
11926;BMP180;6022;48.768;18.608;2023-05-10T13:40:06;98386.22;;;19.65
11926;BMP180;6022;48.768;18.608;2023-05-10T13:42:34;98383.38;;;20.09
11926;BMP180;6022;48.768;18.608;2023-05-10T13:45:02;98369.66;;;19.68
11926;BMP180;6022;48.768;18.608;2023-05-10T13:47:30;98372.47;;;19.82
11926;BMP180;6022;48.768;18.608;2023-05-10T13:49:58;98368.06;;;19.74
11926;BMP180;6022;48.768;18.608;2023-05-10T13:52:26;98360.47;;;19.98
11926;BMP180;6022;48.768;18.608;2023-05-10T13:54:55;98353.09;;;20.03
11926;BMP180;6022;48.768;18.608;2023-05-10T13:57:26;98357.78;;;20.08
11926;BMP180;6022;48.768;18.608;2023-05-10T13:59:54;98353.13;;;20.27
11926;BMP180;6022;48.768;18.608;2023-05-10T14:02:23;98350.44;;;20.44
11926;BMP180;6022;48.768;18.608;2023-05-10T14:04:53;98344.31;;;20.53
11926;BMP180;6022;48.768;18.608;2023-05-10T14:07:22;98347.19;;;20.34
11926;BMP180;6022;48.768;18.608;2023-05-10T14:09:51;98371.97;;;19.78
11926;BMP180;6022;48.768;18.608;2023-05-10T14:12:19;98359.38;;;19.68
11926;BMP180;6022;48.768;18.608;2023-05-10T14:14:47;98373.84;;;18.93
11926;BMP180;6022;48.768;18.608;2023-05-10T14:17:15;98357.94;;;18.38
11926;BMP180;6022;48.768;18.608;2023-05-10T14:19:43;98367.44;;;18.11
11926;BMP180;6022;48.768;18.608;2023-05-10T14:22:11;98359.53;;;18.73
11926;BMP180;6022;48.768;18.608;2023-05-10T14:24:40;98363.34;;;19.04
11926;BMP180;6022;48.768;18.608;2023-05-10T14:27:08;98350.03;;;19.08
11926;BMP180;6022;48.768;18.608;2023-05-10T14:29:37;98355.00;;;18.33
11926;BMP180;6022;48.768;18.608;2023-05-10T14:32:05;98345.31;;;18.61
11926;BMP180;6022;48.768;18.608;2023-05-10T14:34:34;98351.13;;;18.46
11926;BMP180;6022;48.768;18.608;2023-05-10T14:37:02;98351.09;;;18.98
11926;BMP180;6022;48.768;18.608;2023-05-10T14:39:30;98348.47;;;19.15
11926;BMP180;6022;48.768;18.608;2023-05-10T14:41:59;98344.38;;;19.30
11926;BMP180;6022;48.768;18.608;2023-05-10T14:44:28;98347.75;;;19.31
11926;BMP180;6022;48.768;18.608;2023-05-10T14:46:56;98347.25;;;19.52
11926;BMP180;6022;48.768;18.608;2023-05-10T14:49:24;98335.56;;;19.07
11926;BMP180;6022;48.768;18.608;2023-05-10T14:51:54;98340.56;;;19.34
11926;BMP180;6022;48.768;18.608;2023-05-10T14:54:25;98339.16;;;19.47
11926;BMP180;6022;48.768;18.608;2023-05-10T14:56:54;98345.47;;;19.53
11926;BMP180;6022;48.768;18.608;2023-05-10T14:59:25;98337.38;;;18.38
11926;BMP180;6022;48.768;18.608;2023-05-10T15:01:59;98320.22;;;18.55